sensor_id;sensor_type;location;lat;lon;timestamp;P1;durP1;ratioP1;P2;durP2;ratioP2
52104;SDS011;38103;42.776;23.112;2023-08-17T00:01:02;20.17;;;12.95;;
52104;SDS011;38103;42.776;23.112;2023-08-17T00:03:28;22.13;;;13.02;;
52104;SDS011;38103;42.776;23.112;2023-08-17T00:05:53;26.05;;;12.65;;
52104;SDS011;38103;42.776;23.112;2023-08-17T00:08:18;24.38;;;12.88;;
52104;SDS011;38103;42.776;23.112;2023-08-17T00:10:44;19.15;;;12.32;;
52104;SDS011;38103;42.776;23.112;2023-08-17T00:13:09;21.58;;;13.00;;
52104;SDS011;38103;42.776;23.112;2023-08-17T00:15:34;24.70;;;12.52;;
52104;SDS011;38103;42.776;23.112;2023-08-17T00:18:00;22.80;;;11.65;;
52104;SDS011;38103;42.776;23.112;2023-08-17T00:20:25;24.60;;;12.23;;
52104;SDS011;38103;42.776;23.112;2023-08-17T00:22:51;19.35;;;11.18;;
52104;SDS011;38103;42.776;23.112;2023-08-17T00:25:16;18.90;;;11.68;;
52104;SDS011;38103;42.776;23.112;2023-08-17T00:27:41;23.30;;;11.70;;
52104;SDS011;38103;42.776;23.112;2023-08-17T00:30:07;21.20;;;12.00;;
52104;SDS011;38103;42.776;23.112;2023-08-17T00:32:33;21.65;;;11.65;;
52104;SDS011;38103;42.776;23.112;2023-08-17T00:34:58;24.98;;;11.70;;
52104;SDS011;38103;42.776;23.112;2023-08-17T00:37:23;20.38;;;11.70;;
52104;SDS011;38103;42.776;23.112;2023-08-17T00:39:49;18.13;;;10.85;;
52104;SDS011;38103;42.776;23.112;2023-08-17T00:42:14;21.40;;;10.88;;
52104;SDS011;38103;42.776;23.112;2023-08-17T00:44:40;22.38;;;10.73;;
52104;SDS011;38103;42.776;23.112;2023-08-17T00:47:05;21.38;;;10.38;;
52104;SDS011;38103;42.776;23.112;2023-08-17T00:49:32;19.98;;;10.00;;
52104;SDS011;38103;42.776;23.112;2023-08-17T00:51:59;18.90;;;10.55;;
52104;SDS011;38103;42.776;23.112;2023-08-17T00:54:26;20.45;;;9.68;;
52104;SDS011;38103;42.776;23.112;2023-08-17T00:56:53;19.75;;;9.27;;
52104;SDS011;38103;42.776;23.112;2023-08-17T00:59:22;18.50;;;9.32;;
52104;SDS011;38103;42.776;23.112;2023-08-17T01:01:48;21.58;;;10.25;;
52104;SDS011;38103;42.776;23.112;2023-08-17T01:04:14;16.73;;;9.20;;
52104;SDS011;38103;42.776;23.112;2023-08-17T01:06:40;17.23;;;9.23;;
52104;SDS011;38103;42.776;23.112;2023-08-17T01:09:05;19.13;;;9.88;;
52104;SDS011;38103;42.776;23.112;2023-08-17T01:11:37;19.70;;;10.25;;
52104;SDS011;38103;42.776;23.112;2023-08-17T01:14:12;19.23;;;9.52;;
52104;SDS011;38103;42.776;23.112;2023-08-17T01:17:06;19.95;;;9.55;;
52104;SDS011;38103;42.776;23.112;2023-08-17T01:19:40;15.75;;;9.23;;
52104;SDS011;38103;42.776;23.112;2023-08-17T01:22:08;19.73;;;9.50;;
52104;SDS011;38103;42.776;23.112;2023-08-17T01:24:36;18.73;;;9.75;;
52104;SDS011;38103;42.776;23.112;2023-08-17T01:27:01;16.80;;;9.00;;
52104;SDS011;38103;42.776;23.112;2023-08-17T01:29:26;18.80;;;9.82;;
52104;SDS011;38103;42.776;23.112;2023-08-17T01:34:44;21.88;;;8.68;;
52104;SDS011;38103;42.776;23.112;2023-08-17T01:37:15;21.15;;;9.73;;
52104;SDS011;38103;42.776;23.112;2023-08-17T01:39:45;14.95;;;8.82;;
52104;SDS011;38103;42.776;23.112;2023-08-17T01:42:16;19.73;;;8.82;;
52104;SDS011;38103;42.776;23.112;2023-08-17T01:44:43;17.80;;;9.35;;
52104;SDS011;38103;42.776;23.112;2023-08-17T01:47:09;19.15;;;9.35;;
52104;SDS011;38103;42.776;23.112;2023-08-17T01:49:36;17.38;;;9.50;;
52104;SDS011;38103;42.776;23.112;2023-08-17T01:52:01;16.63;;;9.63;;
52104;SDS011;38103;42.776;23.112;2023-08-17T01:54:27;18.10;;;9.90;;
52104;SDS011;38103;42.776;23.112;2023-08-17T01:56:53;19.73;;;9.68;;
52104;SDS011;38103;42.776;23.112;2023-08-17T01:59:18;16.23;;;9.52;;
52104;SDS011;38103;42.776;23.112;2023-08-17T02:01:43;17.95;;;9.70;;
52104;SDS011;38103;42.776;23.112;2023-08-17T02:04:09;19.10;;;10.20;;
52104;SDS011;38103;42.776;23.112;2023-08-17T02:06:34;25.05;;;9.68;;
52104;SDS011;38103;42.776;23.112;2023-08-17T02:08:59;18.73;;;9.90;;
52104;SDS011;38103;42.776;23.112;2023-08-17T02:11:25;19.35;;;9.18;;
52104;SDS011;38103;42.776;23.112;2023-08-17T02:13:50;20.45;;;9.63;;
52104;SDS011;38103;42.776;23.112;2023-08-17T02:16:15;23.50;;;10.13;;
52104;SDS011;38103;42.776;23.112;2023-08-17T02:18:41;18.10;;;9.43;;
52104;SDS011;38103;42.776;23.112;2023-08-17T02:21:06;18.63;;;9.25;;
52104;SDS011;38103;42.776;23.112;2023-08-17T02:23:32;17.33;;;9.98;;
52104;SDS011;38103;42.776;23.112;2023-08-17T02:25:57;22.08;;;10.07;;
52104;SDS011;38103;42.776;23.112;2023-08-17T02:28:22;21.40;;;10.07;;
52104;SDS011;38103;42.776;23.112;2023-08-17T02:30:48;18.25;;;9.75;;
52104;SDS011;38103;42.776;23.112;2023-08-17T02:33:14;19.38;;;10.05;;
52104;SDS011;38103;42.776;23.112;2023-08-17T02:35:39;17.80;;;9.15;;
52104;SDS011;38103;42.776;23.112;2023-08-17T02:38:05;21.02;;;9.40;;
52104;SDS011;38103;42.776;23.112;2023-08-17T02:40:30;16.45;;;9.93;;
52104;SDS011;38103;42.776;23.112;2023-08-17T02:42:55;15.63;;;9.75;;
52104;SDS011;38103;42.776;23.112;2023-08-17T02:45:21;23.42;;;10.80;;
52104;SDS011;38103;42.776;23.112;2023-08-17T02:47:46;15.80;;;9.85;;
52104;SDS011;38103;42.776;23.112;2023-08-17T02:50:12;23.85;;;11.13;;
52104;SDS011;38103;42.776;23.112;2023-08-17T02:52:37;21.33;;;10.52;;
52104;SDS011;38103;42.776;23.112;2023-08-17T02:55:03;20.42;;;10.80;;
52104;SDS011;38103;42.776;23.112;2023-08-17T02:57:28;20.02;;;10.75;;
52104;SDS011;38103;42.776;23.112;2023-08-17T02:59:54;19.70;;;11.15;;
52104;SDS011;38103;42.776;23.112;2023-08-17T03:02:19;19.30;;;11.77;;
52104;SDS011;38103;42.776;23.112;2023-08-17T03:04:44;24.58;;;11.07;;
52104;SDS011;38103;42.776;23.112;2023-08-17T03:07:10;24.63;;;12.75;;
52104;SDS011;38103;42.776;23.112;2023-08-17T03:09:35;19.60;;;12.70;;
52104;SDS011;38103;42.776;23.112;2023-08-17T03:12:01;20.45;;;13.07;;
52104;SDS011;38103;42.776;23.112;2023-08-17T03:14:26;22.45;;;13.65;;
52104;SDS011;38103;42.776;23.112;2023-08-17T03:16:51;20.88;;;13.57;;
52104;SDS011;38103;42.776;23.112;2023-08-17T03:19:17;21.10;;;13.50;;
52104;SDS011;38103;42.776;23.112;2023-08-17T03:21:42;20.08;;;13.32;;
52104;SDS011;38103;42.776;23.112;2023-08-17T03:24:08;24.42;;;13.15;;
52104;SDS011;38103;42.776;23.112;2023-08-17T03:26:33;24.20;;;13.70;;
52104;SDS011;38103;42.776;23.112;2023-08-17T03:28:58;19.60;;;12.95;;
52104;SDS011;38103;42.776;23.112;2023-08-17T03:31:24;20.92;;;13.80;;
52104;SDS011;38103;42.776;23.112;2023-08-17T03:33:49;22.92;;;14.60;;
52104;SDS011;38103;42.776;23.112;2023-08-17T03:36:15;22.95;;;14.13;;
52104;SDS011;38103;42.776;23.112;2023-08-17T03:38:40;27.58;;;15.13;;
52104;SDS011;38103;42.776;23.112;2023-08-17T03:41:06;24.88;;;14.07;;
52104;SDS011;38103;42.776;23.112;2023-08-17T03:43:31;24.77;;;14.57;;
52104;SDS011;38103;42.776;23.112;2023-08-17T03:45:57;22.35;;;14.25;;
52104;SDS011;38103;42.776;23.112;2023-08-17T03:48:22;21.35;;;14.40;;
52104;SDS011;38103;42.776;23.112;2023-08-17T03:50:54;19.42;;;13.63;;
52104;SDS011;38103;42.776;23.112;2023-08-17T03:53:20;21.42;;;13.80;;
52104;SDS011;38103;42.776;23.112;2023-08-17T03:55:47;25.83;;;13.93;;
52104;SDS011;38103;42.776;23.112;2023-08-17T03:58:13;23.77;;;13.75;;
52104;SDS011;38103;42.776;23.112;2023-08-17T04:00:38;22.13;;;13.50;;
52104;SDS011;38103;42.776;23.112;2023-08-17T04:03:05;20.42;;;12.57;;
52104;SDS011;38103;42.776;23.112;2023-08-17T04:05:31;18.52;;;12.30;;
52104;SDS011;38103;42.776;23.112;2023-08-17T04:07:56;20.85;;;12.65;;
52104;SDS011;38103;42.776;23.112;2023-08-17T04:10:26;22.73;;;12.07;;
52104;SDS011;38103;42.776;23.112;2023-08-17T04:12:52;21.52;;;10.30;;
52104;SDS011;38103;42.776;23.112;2023-08-17T04:15:17;17.15;;;11.63;;
52104;SDS011;38103;42.776;23.112;2023-08-17T04:17:43;20.65;;;10.95;;
52104;SDS011;38103;42.776;23.112;2023-08-17T04:20:08;16.85;;;10.48;;
52104;SDS011;38103;42.776;23.112;2023-08-17T04:22:34;19.67;;;11.50;;
52104;SDS011;38103;42.776;23.112;2023-08-17T04:25:00;19.77;;;11.15;;
52104;SDS011;38103;42.776;23.112;2023-08-17T04:27:25;18.80;;;11.07;;
52104;SDS011;38103;42.776;23.112;2023-08-17T04:29:50;18.77;;;10.40;;
52104;SDS011;38103;42.776;23.112;2023-08-17T04:32:16;17.17;;;9.50;;
52104;SDS011;38103;42.776;23.112;2023-08-17T04:34:42;19.55;;;9.63;;
52104;SDS011;38103;42.776;23.112;2023-08-17T04:37:08;16.90;;;9.60;;
52104;SDS011;38103;42.776;23.112;2023-08-17T04:39:33;20.02;;;8.85;;
52104;SDS011;38103;42.776;23.112;2023-08-17T04:41:59;17.92;;;9.30;;
52104;SDS011;38103;42.776;23.112;2023-08-17T04:44:24;22.70;;;9.48;;
52104;SDS011;38103;42.776;23.112;2023-08-17T04:46:49;16.95;;;9.30;;
52104;SDS011;38103;42.776;23.112;2023-08-17T04:49:15;16.83;;;8.93;;
52104;SDS011;38103;42.776;23.112;2023-08-17T04:51:40;18.25;;;9.00;;
52104;SDS011;38103;42.776;23.112;2023-08-17T04:54:06;15.93;;;9.57;;
52104;SDS011;38103;42.776;23.112;2023-08-17T04:56:31;16.52;;;8.93;;
52104;SDS011;38103;42.776;23.112;2023-08-17T04:58:57;15.73;;;9.15;;
52104;SDS011;38103;42.776;23.112;2023-08-17T05:01:22;18.58;;;9.25;;
52104;SDS011;38103;42.776;23.112;2023-08-17T05:03:47;17.05;;;8.85;;
52104;SDS011;38103;42.776;23.112;2023-08-17T05:06:13;14.27;;;8.10;;
52104;SDS011;38103;42.776;23.112;2023-08-17T05:08:38;18.65;;;8.50;;
52104;SDS011;38103;42.776;23.112;2023-08-17T05:11:03;19.20;;;8.68;;
52104;SDS011;38103;42.776;23.112;2023-08-17T05:13:30;18.52;;;8.65;;
52104;SDS011;38103;42.776;23.112;2023-08-17T05:15:55;17.70;;;8.50;;
52104;SDS011;38103;42.776;23.112;2023-08-17T05:18:21;19.05;;;9.70;;
52104;SDS011;38103;42.776;23.112;2023-08-17T05:20:46;16.70;;;9.25;;
52104;SDS011;38103;42.776;23.112;2023-08-17T05:23:12;19.58;;;9.27;;
52104;SDS011;38103;42.776;23.112;2023-08-17T05:25:37;20.67;;;9.90;;
52104;SDS011;38103;42.776;23.112;2023-08-17T05:28:02;14.68;;;9.00;;
52104;SDS011;38103;42.776;23.112;2023-08-17T05:30:28;17.50;;;9.60;;
52104;SDS011;38103;42.776;23.112;2023-08-17T05:32:53;20.55;;;9.00;;
52104;SDS011;38103;42.776;23.112;2023-08-17T05:35:20;17.80;;;8.68;;
52104;SDS011;38103;42.776;23.112;2023-08-17T05:37:45;19.23;;;8.45;;
52104;SDS011;38103;42.776;23.112;2023-08-17T05:40:11;15.15;;;8.57;;
52104;SDS011;38103;42.776;23.112;2023-08-17T05:42:36;16.88;;;9.15;;
52104;SDS011;38103;42.776;23.112;2023-08-17T05:45:02;19.17;;;9.75;;
52104;SDS011;38103;42.776;23.112;2023-08-17T05:47:27;21.70;;;9.38;;
52104;SDS011;38103;42.776;23.112;2023-08-17T05:49:53;15.30;;;9.05;;
52104;SDS011;38103;42.776;23.112;2023-08-17T05:52:18;16.35;;;9.93;;
52104;SDS011;38103;42.776;23.112;2023-08-17T05:54:44;18.77;;;9.40;;
52104;SDS011;38103;42.776;23.112;2023-08-17T05:57:12;23.10;;;9.32;;
52104;SDS011;38103;42.776;23.112;2023-08-17T05:59:39;19.10;;;9.35;;
52104;SDS011;38103;42.776;23.112;2023-08-17T06:02:04;16.58;;;9.18;;
52104;SDS011;38103;42.776;23.112;2023-08-17T06:04:30;19.20;;;9.52;;
52104;SDS011;38103;42.776;23.112;2023-08-17T06:06:56;19.08;;;9.00;;
52104;SDS011;38103;42.776;23.112;2023-08-17T06:09:21;20.35;;;9.20;;
52104;SDS011;38103;42.776;23.112;2023-08-17T06:11:47;20.98;;;9.05;;
52104;SDS011;38103;42.776;23.112;2023-08-17T06:14:12;16.83;;;9.02;;
52104;SDS011;38103;42.776;23.112;2023-08-17T06:16:37;18.00;;;8.52;;
52104;SDS011;38103;42.776;23.112;2023-08-17T06:19:03;16.70;;;9.35;;
52104;SDS011;38103;42.776;23.112;2023-08-17T06:21:28;18.63;;;9.80;;
52104;SDS011;38103;42.776;23.112;2023-08-17T06:23:54;22.75;;;9.43;;
52104;SDS011;38103;42.776;23.112;2023-08-17T06:26:19;19.73;;;9.25;;
52104;SDS011;38103;42.776;23.112;2023-08-17T06:28:44;18.33;;;9.38;;
52104;SDS011;38103;42.776;23.112;2023-08-17T06:31:10;18.52;;;9.60;;
52104;SDS011;38103;42.776;23.112;2023-08-17T06:33:35;21.42;;;9.63;;
52104;SDS011;38103;42.776;23.112;2023-08-17T06:36:00;17.88;;;9.73;;
52104;SDS011;38103;42.776;23.112;2023-08-17T06:38:26;17.95;;;9.18;;
52104;SDS011;38103;42.776;23.112;2023-08-17T06:40:51;17.27;;;9.68;;
52104;SDS011;38103;42.776;23.112;2023-08-17T06:43:17;22.50;;;9.52;;
52104;SDS011;38103;42.776;23.112;2023-08-17T06:45:43;16.98;;;9.18;;
52104;SDS011;38103;42.776;23.112;2023-08-17T06:48:09;16.48;;;8.95;;
52104;SDS011;38103;42.776;23.112;2023-08-17T06:50:34;21.30;;;9.63;;
52104;SDS011;38103;42.776;23.112;2023-08-17T06:53:00;18.67;;;8.77;;
52104;SDS011;38103;42.776;23.112;2023-08-17T06:55:27;21.17;;;9.23;;
52104;SDS011;38103;42.776;23.112;2023-08-17T06:57:52;22.95;;;9.05;;
52104;SDS011;38103;42.776;23.112;2023-08-17T07:00:18;19.25;;;9.20;;
52104;SDS011;38103;42.776;23.112;2023-08-17T07:02:47;19.15;;;9.10;;
52104;SDS011;38103;42.776;23.112;2023-08-17T07:05:14;15.75;;;8.45;;
52104;SDS011;38103;42.776;23.112;2023-08-17T07:07:39;17.63;;;8.07;;
52104;SDS011;38103;42.776;23.112;2023-08-17T07:10:05;18.40;;;7.70;;
52104;SDS011;38103;42.776;23.112;2023-08-17T07:12:32;17.67;;;7.50;;
52104;SDS011;38103;42.776;23.112;2023-08-17T07:14:57;20.08;;;7.70;;
52104;SDS011;38103;42.776;23.112;2023-08-17T07:17:23;16.20;;;6.43;;
52104;SDS011;38103;42.776;23.112;2023-08-17T07:19:48;14.43;;;6.43;;
52104;SDS011;38103;42.776;23.112;2023-08-17T07:22:13;15.18;;;6.80;;
52104;SDS011;38103;42.776;23.112;2023-08-17T07:24:41;14.40;;;6.63;;
52104;SDS011;38103;42.776;23.112;2023-08-17T07:27:06;20.33;;;7.05;;
52104;SDS011;38103;42.776;23.112;2023-08-17T07:29:32;16.15;;;6.25;;
52104;SDS011;38103;42.776;23.112;2023-08-17T07:31:57;17.05;;;6.80;;
52104;SDS011;38103;42.776;23.112;2023-08-17T07:34:26;14.07;;;6.82;;
52104;SDS011;38103;42.776;23.112;2023-08-17T07:36:52;16.00;;;6.13;;
52104;SDS011;38103;42.776;23.112;2023-08-17T07:39:17;14.15;;;6.55;;
52104;SDS011;38103;42.776;23.112;2023-08-17T07:41:43;15.10;;;6.13;;
52104;SDS011;38103;42.776;23.112;2023-08-17T07:44:09;13.45;;;5.50;;
52104;SDS011;38103;42.776;23.112;2023-08-17T07:46:34;11.68;;;5.65;;
52104;SDS011;38103;42.776;23.112;2023-08-17T07:49:00;14.52;;;5.82;;
52104;SDS011;38103;42.776;23.112;2023-08-17T07:51:25;15.80;;;5.80;;
52104;SDS011;38103;42.776;23.112;2023-08-17T07:53:50;12.93;;;5.60;;
52104;SDS011;38103;42.776;23.112;2023-08-17T07:56:16;14.88;;;5.63;;
52104;SDS011;38103;42.776;23.112;2023-08-17T07:58:41;15.18;;;5.70;;
52104;SDS011;38103;42.776;23.112;2023-08-17T08:01:07;18.10;;;5.55;;
52104;SDS011;38103;42.776;23.112;2023-08-17T08:03:32;15.80;;;5.45;;
52104;SDS011;38103;42.776;23.112;2023-08-17T08:05:57;12.98;;;5.70;;
52104;SDS011;38103;42.776;23.112;2023-08-17T08:08:23;16.10;;;5.22;;
52104;SDS011;38103;42.776;23.112;2023-08-17T08:10:48;18.00;;;5.88;;
52104;SDS011;38103;42.776;23.112;2023-08-17T08:13:14;13.48;;;5.30;;
52104;SDS011;38103;42.776;23.112;2023-08-17T08:15:39;15.20;;;6.20;;
52104;SDS011;38103;42.776;23.112;2023-08-17T08:18:04;13.60;;;5.22;;
52104;SDS011;38103;42.776;23.112;2023-08-17T08:20:30;12.57;;;5.07;;
52104;SDS011;38103;42.776;23.112;2023-08-17T08:22:55;12.07;;;5.22;;
52104;SDS011;38103;42.776;23.112;2023-08-17T08:25:21;12.13;;;4.40;;
52104;SDS011;38103;42.776;23.112;2023-08-17T08:27:46;10.73;;;4.20;;
52104;SDS011;38103;42.776;23.112;2023-08-17T08:30:11;14.52;;;4.53;;
52104;SDS011;38103;42.776;23.112;2023-08-17T08:32:37;11.23;;;4.68;;
52104;SDS011;38103;42.776;23.112;2023-08-17T08:35:02;11.35;;;4.70;;
52104;SDS011;38103;42.776;23.112;2023-08-17T08:37:28;13.00;;;5.18;;
52104;SDS011;38103;42.776;23.112;2023-08-17T08:39:54;14.20;;;5.25;;
52104;SDS011;38103;42.776;23.112;2023-08-17T08:42:21;48.17;;;11.85;;
52104;SDS011;38103;42.776;23.112;2023-08-17T08:44:47;12.00;;;5.00;;
52104;SDS011;38103;42.776;23.112;2023-08-17T08:47:14;11.10;;;4.55;;
52104;SDS011;38103;42.776;23.112;2023-08-17T08:49:46;16.95;;;5.20;;
52104;SDS011;38103;42.776;23.112;2023-08-17T08:52:23;11.52;;;4.70;;
52104;SDS011;38103;42.776;23.112;2023-08-17T08:54:53;14.48;;;5.30;;
52104;SDS011;38103;42.776;23.112;2023-08-17T08:57:22;11.90;;;4.88;;
52104;SDS011;38103;42.776;23.112;2023-08-17T08:59:48;10.25;;;4.90;;
52104;SDS011;38103;42.776;23.112;2023-08-17T09:02:14;13.40;;;4.95;;
52104;SDS011;38103;42.776;23.112;2023-08-17T09:04:42;20.15;;;4.72;;
52104;SDS011;38103;42.776;23.112;2023-08-17T09:07:10;12.13;;;4.50;;
52104;SDS011;38103;42.776;23.112;2023-08-17T09:09:37;11.18;;;4.75;;
52104;SDS011;38103;42.776;23.112;2023-08-17T09:12:03;11.15;;;4.45;;
52104;SDS011;38103;42.776;23.112;2023-08-17T09:14:32;17.92;;;4.40;;
52104;SDS011;38103;42.776;23.112;2023-08-17T09:16:57;12.20;;;4.05;;
52104;SDS011;38103;42.776;23.112;2023-08-17T09:19:23;11.45;;;4.38;;
52104;SDS011;38103;42.776;23.112;2023-08-17T09:21:49;14.43;;;4.50;;
52104;SDS011;38103;42.776;23.112;2023-08-17T09:24:15;15.43;;;4.97;;
52104;SDS011;38103;42.776;23.112;2023-08-17T09:26:40;12.48;;;4.05;;
52104;SDS011;38103;42.776;23.112;2023-08-17T09:29:18;13.00;;;4.63;;
52104;SDS011;38103;42.776;23.112;2023-08-17T09:31:45;13.55;;;4.75;;
52104;SDS011;38103;42.776;23.112;2023-08-17T09:34:11;12.52;;;4.63;;
52104;SDS011;38103;42.776;23.112;2023-08-17T09:36:39;11.65;;;4.32;;
52104;SDS011;38103;42.776;23.112;2023-08-17T09:39:05;11.50;;;4.40;;
52104;SDS011;38103;42.776;23.112;2023-08-17T09:41:31;14.02;;;4.25;;
52104;SDS011;38103;42.776;23.112;2023-08-17T09:44:03;12.85;;;4.10;;
52104;SDS011;38103;42.776;23.112;2023-08-17T09:46:29;13.35;;;4.38;;
52104;SDS011;38103;42.776;23.112;2023-08-17T09:48:54;15.20;;;4.30;;
52104;SDS011;38103;42.776;23.112;2023-08-17T09:51:20;10.20;;;3.80;;
52104;SDS011;38103;42.776;23.112;2023-08-17T09:53:51;11.15;;;3.80;;
52104;SDS011;38103;42.776;23.112;2023-08-17T09:56:18;13.05;;;4.68;;
52104;SDS011;38103;42.776;23.112;2023-08-17T09:58:46;10.90;;;4.20;;
52104;SDS011;38103;42.776;23.112;2023-08-17T10:01:12;10.80;;;5.00;;
52104;SDS011;38103;42.776;23.112;2023-08-17T10:03:39;12.15;;;4.60;;
52104;SDS011;38103;42.776;23.112;2023-08-17T10:06:09;12.07;;;4.35;;
52104;SDS011;38103;42.776;23.112;2023-08-17T10:08:43;11.18;;;4.22;;
52104;SDS011;38103;42.776;23.112;2023-08-17T10:11:13;12.18;;;4.45;;
52104;SDS011;38103;42.776;23.112;2023-08-17T10:13:49;16.48;;;4.97;;
52104;SDS011;38103;42.776;23.112;2023-08-17T10:21:40;13.73;;;4.93;;
52104;SDS011;38103;42.776;23.112;2023-08-17T10:24:13;15.55;;;5.25;;
52104;SDS011;38103;42.776;23.112;2023-08-17T10:26:39;10.63;;;4.10;;
52104;SDS011;38103;42.776;23.112;2023-08-17T10:29:06;10.55;;;4.10;;
52104;SDS011;38103;42.776;23.112;2023-08-17T10:31:35;13.27;;;4.35;;
52104;SDS011;38103;42.776;23.112;2023-08-17T10:34:00;10.75;;;4.30;;
52104;SDS011;38103;42.776;23.112;2023-08-17T10:36:27;11.77;;;4.85;;
52104;SDS011;38103;42.776;23.112;2023-08-17T10:41:47;12.43;;;4.63;;
52104;SDS011;38103;42.776;23.112;2023-08-17T10:44:13;10.75;;;4.60;;
52104;SDS011;38103;42.776;23.112;2023-08-17T10:46:39;10.40;;;4.50;;
52104;SDS011;38103;42.776;23.112;2023-08-17T10:49:06;9.82;;;3.70;;
52104;SDS011;38103;42.776;23.112;2023-08-17T10:51:35;12.40;;;3.80;;
52104;SDS011;38103;42.776;23.112;2023-08-17T10:54:01;11.43;;;3.80;;
52104;SDS011;38103;42.776;23.112;2023-08-17T10:56:28;15.52;;;3.90;;
52104;SDS011;38103;42.776;23.112;2023-08-17T10:58:54;10.90;;;4.22;;
52104;SDS011;38103;42.776;23.112;2023-08-17T11:01:34;15.00;;;4.38;;
52104;SDS011;38103;42.776;23.112;2023-08-17T11:04:15;13.68;;;4.53;;
52104;SDS011;38103;42.776;23.112;2023-08-17T11:06:42;11.80;;;4.40;;
52104;SDS011;38103;42.776;23.112;2023-08-17T11:09:08;11.75;;;3.90;;
52104;SDS011;38103;42.776;23.112;2023-08-17T11:11:34;9.85;;;4.05;;
52104;SDS011;38103;42.776;23.112;2023-08-17T11:13:59;11.85;;;4.43;;
52104;SDS011;38103;42.776;23.112;2023-08-17T11:16:25;15.85;;;4.60;;
52104;SDS011;38103;42.776;23.112;2023-08-17T11:18:50;10.75;;;4.57;;
52104;SDS011;38103;42.776;23.112;2023-08-17T11:21:16;12.50;;;5.40;;
52104;SDS011;38103;42.776;23.112;2023-08-17T11:23:42;12.85;;;4.65;;
52104;SDS011;38103;42.776;23.112;2023-08-17T11:26:08;12.40;;;4.50;;
52104;SDS011;38103;42.776;23.112;2023-08-17T11:28:34;11.02;;;4.05;;
52104;SDS011;38103;42.776;23.112;2023-08-17T11:31:06;10.70;;;4.28;;
52104;SDS011;38103;42.776;23.112;2023-08-17T11:33:35;11.95;;;4.20;;
52104;SDS011;38103;42.776;23.112;2023-08-17T11:36:02;12.15;;;4.82;;
52104;SDS011;38103;42.776;23.112;2023-08-17T11:38:34;10.43;;;4.47;;
52104;SDS011;38103;42.776;23.112;2023-08-17T11:41:00;12.30;;;4.60;;
52104;SDS011;38103;42.776;23.112;2023-08-17T11:43:28;10.77;;;4.32;;
52104;SDS011;38103;42.776;23.112;2023-08-17T11:45:56;11.43;;;4.50;;
52104;SDS011;38103;42.776;23.112;2023-08-17T11:48:23;10.82;;;4.15;;
52104;SDS011;38103;42.776;23.112;2023-08-17T11:50:49;14.43;;;4.80;;
52104;SDS011;38103;42.776;23.112;2023-08-17T11:53:14;13.52;;;4.18;;
52104;SDS011;38103;42.776;23.112;2023-08-17T11:55:40;12.00;;;4.90;;
52104;SDS011;38103;42.776;23.112;2023-08-17T11:58:06;14.43;;;5.20;;
52104;SDS011;38103;42.776;23.112;2023-08-17T12:00:36;13.38;;;4.68;;
52104;SDS011;38103;42.776;23.112;2023-08-17T12:03:04;12.38;;;4.90;;
52104;SDS011;38103;42.776;23.112;2023-08-17T12:05:30;14.15;;;5.07;;
52104;SDS011;38103;42.776;23.112;2023-08-17T12:07:58;12.38;;;4.78;;
52104;SDS011;38103;42.776;23.112;2023-08-17T12:10:27;22.40;;;5.53;;
52104;SDS011;38103;42.776;23.112;2023-08-17T12:12:53;13.75;;;4.82;;
52104;SDS011;38103;42.776;23.112;2023-08-17T12:15:18;10.43;;;5.05;;
52104;SDS011;38103;42.776;23.112;2023-08-17T12:38:24;12.15;;;4.82;;
52104;SDS011;38103;42.776;23.112;2023-08-17T12:40:50;14.32;;;4.90;;
52104;SDS011;38103;42.776;23.112;2023-08-17T12:43:15;10.45;;;4.72;;
52104;SDS011;38103;42.776;23.112;2023-08-17T12:45:41;13.60;;;4.97;;
52104;SDS011;38103;42.776;23.112;2023-08-17T12:48:06;12.70;;;4.88;;
52104;SDS011;38103;42.776;23.112;2023-08-17T12:50:31;11.80;;;5.00;;
52104;SDS011;38103;42.776;23.112;2023-08-17T12:52:57;13.30;;;5.03;;
52104;SDS011;38103;42.776;23.112;2023-08-17T12:55:22;12.50;;;4.88;;
52104;SDS011;38103;42.776;23.112;2023-08-17T12:57:48;11.35;;;4.63;;
52104;SDS011;38103;42.776;23.112;2023-08-17T13:00:13;12.68;;;4.57;;
52104;SDS011;38103;42.776;23.112;2023-08-17T13:02:39;13.20;;;4.97;;
52104;SDS011;38103;42.776;23.112;2023-08-17T13:05:04;12.65;;;4.75;;
52104;SDS011;38103;42.776;23.112;2023-08-17T13:07:30;16.05;;;4.88;;
52104;SDS011;38103;42.776;23.112;2023-08-17T13:09:55;12.70;;;4.90;;
52104;SDS011;38103;42.776;23.112;2023-08-17T13:12:20;14.65;;;5.03;;
52104;SDS011;38103;42.776;23.112;2023-08-17T13:14:46;15.40;;;4.80;;
52104;SDS011;38103;42.776;23.112;2023-08-17T13:17:11;11.77;;;4.68;;
52104;SDS011;38103;42.776;23.112;2023-08-17T13:19:39;13.90;;;4.70;;
52104;SDS011;38103;42.776;23.112;2023-08-17T13:22:04;14.10;;;5.40;;
52104;SDS011;38103;42.776;23.112;2023-08-17T13:24:30;13.05;;;5.13;;
52104;SDS011;38103;42.776;23.112;2023-08-17T13:26:56;10.98;;;4.65;;
52104;SDS011;38103;42.776;23.112;2023-08-17T13:29:22;11.52;;;4.28;;
52104;SDS011;38103;42.776;23.112;2023-08-17T13:31:47;13.98;;;5.10;;
52104;SDS011;38103;42.776;23.112;2023-08-17T13:34:13;14.75;;;4.47;;
52104;SDS011;38103;42.776;23.112;2023-08-17T13:36:39;12.18;;;4.57;;
52104;SDS011;38103;42.776;23.112;2023-08-17T13:39:05;11.15;;;5.03;;
52104;SDS011;38103;42.776;23.112;2023-08-17T13:41:31;11.02;;;4.97;;
52104;SDS011;38103;42.776;23.112;2023-08-17T13:43:56;11.82;;;4.55;;
52104;SDS011;38103;42.776;23.112;2023-08-17T13:46:22;12.93;;;4.50;;
52104;SDS011;38103;42.776;23.112;2023-08-17T13:48:48;13.90;;;4.97;;
52104;SDS011;38103;42.776;23.112;2023-08-17T13:51:13;12.93;;;4.97;;
52104;SDS011;38103;42.776;23.112;2023-08-17T13:53:39;13.38;;;5.03;;
52104;SDS011;38103;42.776;23.112;2023-08-17T13:56:05;13.60;;;4.95;;
52104;SDS011;38103;42.776;23.112;2023-08-17T13:58:30;14.55;;;5.30;;
52104;SDS011;38103;42.776;23.112;2023-08-17T14:00:56;11.73;;;4.80;;
52104;SDS011;38103;42.776;23.112;2023-08-17T14:03:22;22.88;;;5.25;;
52104;SDS011;38103;42.776;23.112;2023-08-17T14:05:48;11.25;;;5.00;;
52104;SDS011;38103;42.776;23.112;2023-08-17T14:08:13;12.18;;;5.28;;
52104;SDS011;38103;42.776;23.112;2023-08-17T14:10:39;14.68;;;4.80;;
52104;SDS011;38103;42.776;23.112;2023-08-17T14:13:04;11.73;;;4.53;;
52104;SDS011;38103;42.776;23.112;2023-08-17T14:15:29;11.00;;;4.53;;
52104;SDS011;38103;42.776;23.112;2023-08-17T14:17:55;17.85;;;4.65;;
52104;SDS011;38103;42.776;23.112;2023-08-17T14:20:20;16.30;;;4.65;;
52104;SDS011;38103;42.776;23.112;2023-08-17T14:22:46;15.02;;;4.75;;
52104;SDS011;38103;42.776;23.112;2023-08-17T14:25:13;10.38;;;4.25;;
52104;SDS011;38103;42.776;23.112;2023-08-17T14:27:38;12.85;;;5.28;;
52104;SDS011;38103;42.776;23.112;2023-08-17T14:30:04;12.23;;;4.75;;
52104;SDS011;38103;42.776;23.112;2023-08-17T14:32:30;10.48;;;4.53;;
52104;SDS011;38103;42.776;23.112;2023-08-17T14:34:55;11.23;;;4.53;;
52104;SDS011;38103;42.776;23.112;2023-08-17T14:37:21;15.20;;;4.80;;
52104;SDS011;38103;42.776;23.112;2023-08-17T14:39:46;12.45;;;4.70;;
52104;SDS011;38103;42.776;23.112;2023-08-17T14:42:12;10.75;;;4.10;;
52104;SDS011;38103;42.776;23.112;2023-08-17T14:44:37;12.40;;;4.63;;